Airfield :
LOGIN :

Register | Disclaimer

   EN    FR    IT 

 










Legend :    VFR   Marginal VFR   IFR   Intensive IFR   Very Intensive IFR
Visi :
Ceiling :
>= 8 km
>= 3000ft
5 to 8 km
1000 to 3000 ft
1500m to 5 km
500 to 1000 ft
800 to 1500m
200 to 500 ft
< 800m
< 200 ft
Symbols :   Thunderstorms  Fog  Heavy snow  Heavy precipitations  Wind > 20 kt
SIGMETs :     Misc.  Thunderstorms  Icing  Turbulence  Mountain Waves  Volcanic Ashes






- Airport Elevation : 863 ft
- IATA code : ZAZ


LEZG - Zaragoza Aragon

CURRENT METAR :
  • 181230Z 30012KT 260V320 9999 FEW030 13/05 Q1026

EXPIRED METARs :
  • 181200Z 30012KT 9999 FEW030 12/05 Q1027
  • 181130Z 30012KT 270V330 9999 FEW030 12/05 Q1027
  • 181100Z 29012KT 9999 FEW030 12/05 Q1028
  • 181030Z 29013KT 260V320 CAVOK 11/05 Q1028
  • 181000Z 28014KT CAVOK 11/06 Q1028

TAF TAF LEZG
Valid from the 18 at 12:00 until the 19 at 12:00 UTC


181100Z 1812/1912 28012KT 9999 FEW040 TX14/1814Z TN00/1906Z
BECMG 1816/1818 22010KT
TEMPO 1818/1824 VRB03KT
BECMG 1900/1902 VRB03KT



MET'MAP, your aeronautical weather chart ! - Copyright ORBIFLY December 2007 - Disclaimer

ORBIFLY MET'MAP TEAM :

Programming & Development : Alexandra Zaïnal
Concept & original design : Baudouin d'Aumeries
Assistance for programming : Marc-Olivier Méhu
Technical & hardware support : Manuel Goepfert

Contact : metmap@orbifly.com




SOURCES & CREDITS :

   NOAA